createdAt,value
2018-07-28T00:02:54.790Z,70.90
2018-07-28T00:05:57.986Z,71.30
2018-07-28T00:09:01.182Z,71.70
2018-07-28T00:12:04.363Z,71.70
2018-07-28T00:15:09.063Z,72.10
2018-07-28T00:21:15.201Z,72.50
2018-07-28T00:24:18.414Z,72.70
2018-07-28T00:27:21.562Z,73.00
2018-07-28T00:30:24.694Z,73.50
2018-07-28T00:33:27.895Z,73.90
2018-07-28T00:36:31.170Z,74.20
2018-07-28T00:39:34.447Z,74.70
2018-07-28T00:42:38.082Z,75.00
2018-07-28T00:45:41.435Z,75.50
2018-07-28T00:48:44.585Z,75.70
2018-07-28T00:51:47.784Z,75.80
2018-07-28T01:03:59.960Z,77.70
2018-07-28T01:10:06.812Z,78.30
2018-07-28T01:13:10.125Z,78.40
2018-07-28T01:16:13.335Z,78.60
2018-07-28T01:19:16.530Z,78.60
2018-07-28T01:22:19.703Z,79.70
2018-07-28T01:25:22.938Z,79.60
2018-07-28T01:28:26.206Z,80.10
2018-07-28T01:31:29.633Z,80.40
2018-07-28T01:34:32.826Z,80.70
2018-07-28T01:37:36.104Z,81.20
2018-07-28T01:40:40.441Z,81.20
2018-07-28T01:46:46.646Z,82.00
2018-07-28T01:49:49.830Z,82.00
2018-07-28T01:52:53.088Z,81.90
2018-07-28T01:55:57.136Z,82.00
2018-07-28T01:59:00.570Z,81.90
2018-07-28T02:02:03.835Z,82.10
2018-07-28T02:05:08.254Z,82.60
2018-07-28T02:08:11.561Z,82.70
2018-07-28T02:11:14.754Z,83.30
2018-07-28T02:14:18.073Z,84.00
2018-07-28T02:17:21.271Z,84.60
2018-07-28T02:20:24.454Z,85.10
2018-07-28T02:23:27.690Z,85.60
2018-07-28T02:26:30.941Z,85.50
2018-07-28T02:29:34.258Z,85.80
2018-07-28T02:32:37.687Z,85.70
2018-07-28T02:35:40.848Z,85.70
2018-07-28T02:38:43.933Z,86.90
2018-07-28T02:41:46.994Z,86.60
2018-07-28T02:44:50.059Z,86.60
2018-07-28T02:47:53.702Z,86.60
2018-07-28T02:50:56.792Z,86.50
2018-07-28T02:53:59.857Z,86.80
2018-07-28T03:00:06.566Z,87.00
2018-07-28T03:03:09.617Z,87.30
2018-07-28T03:06:12.701Z,87.30
2018-07-28T03:09:15.757Z,88.00
2018-07-28T03:12:18.832Z,88.00
2018-07-28T03:15:30.372Z,88.20
2018-07-28T03:18:33.448Z,88.30
2018-07-28T03:21:36.531Z,88.00
2018-07-28T03:24:39.605Z,88.00
2018-07-28T03:27:42.673Z,88.00
2018-07-28T03:30:45.743Z,88.80
2018-07-28T03:33:48.812Z,89.40
2018-07-28T03:36:51.888Z,89.80
2018-07-28T03:39:55.615Z,89.70
2018-07-28T03:42:58.700Z,89.60
2018-07-28T03:46:01.761Z,89.80
2018-07-28T03:49:05.121Z,90.00
2018-07-28T03:55:17.990Z,89.50
2018-07-28T03:58:21.265Z,89.40
2018-07-28T04:01:24.534Z,88.90
2018-07-28T04:04:27.799Z,88.70
2018-07-28T04:07:30.990Z,88.80
2018-07-28T04:10:34.238Z,88.00
2018-07-28T04:13:37.414Z,88.00
2018-07-28T04:16:40.586Z,88.00
2018-07-28T04:19:43.758Z,88.10
2018-07-28T04:22:47.001Z,87.40
2018-07-28T04:25:50.271Z,87.80
2018-07-28T04:28:53.498Z,87.70
2018-07-28T04:34:59.783Z,88.70
2018-07-28T04:38:03.004Z,87.70
2018-07-28T04:41:06.290Z,87.90
2018-07-28T04:47:12.414Z,86.70
2018-07-28T04:50:15.736Z,86.40
2018-07-28T04:53:18.901Z,86.30
2018-07-28T04:56:22.085Z,86.30
2018-07-28T04:59:25.242Z,86.80
2018-07-28T05:02:28.977Z,85.60
2018-07-28T05:05:32.198Z,85.10
2018-07-28T05:08:35.694Z,84.40
2018-07-28T05:11:39.050Z,84.10
2018-07-28T05:14:42.294Z,83.90
2018-07-28T05:17:45.480Z,84.20
2018-07-28T05:20:48.666Z,84.10
2018-07-28T05:23:52.049Z,84.00
2018-07-28T05:26:55.270Z,83.10
2018-07-28T05:29:58.555Z,83.20
2018-07-28T05:33:02.015Z,82.40
2018-07-28T05:36:05.370Z,81.00
2018-07-28T05:39:10.324Z,79.20
2018-07-28T05:42:13.517Z,71.50
2018-07-28T05:45:16.769Z,62.20
2018-07-28T05:48:19.990Z,56.40
2018-07-28T05:51:23.202Z,51.80
2018-07-28T05:54:26.410Z,46.60
2018-07-28T05:57:29.629Z,44.60
2018-07-28T06:00:33.552Z,40.80
2018-07-28T06:03:36.734Z,38.80
2018-07-28T06:06:40.012Z,37.60
2018-07-28T06:12:46.085Z,36.70
2018-07-28T06:18:52.234Z,35.00
2018-07-28T06:21:55.456Z,34.60
2018-07-28T06:31:04.694Z,37.20
2018-07-28T06:34:07.875Z,36.30
2018-07-28T06:37:11.150Z,35.40
2018-07-28T06:40:14.221Z,34.00
2018-07-28T06:49:23.052Z,31.90
2018-07-28T06:52:26.251Z,32.10
2018-07-28T06:55:29.815Z,32.10
2018-07-28T06:58:32.917Z,32.30
2018-07-28T07:01:35.965Z,31.60
2018-07-28T07:04:39.056Z,31.50
2018-07-28T07:07:42.093Z,31.30
2018-07-28T07:10:45.170Z,30.30
2018-07-28T07:13:48.230Z,30.90
2018-07-28T07:22:57.066Z,30.50
2018-07-28T07:26:00.146Z,30.10
2018-07-28T07:29:03.224Z,30.10
2018-07-28T07:32:06.333Z,30.80
2018-07-28T07:35:09.409Z,31.20
2018-07-28T07:38:12.481Z,32.10
2018-07-28T07:41:15.573Z,32.80
2018-07-28T07:44:18.652Z,33.50
2018-07-28T07:47:21.777Z,32.40
2018-07-28T07:50:24.753Z,31.20
2018-07-28T07:53:27.900Z,31.00
2018-07-28T07:59:33.882Z,29.80
2018-07-28T08:05:39.772Z,29.30
2018-07-28T08:08:42.828Z,29.20
2018-07-28T08:11:45.905Z,28.60
2018-07-28T08:14:48.961Z,28.50
2018-07-28T08:17:52.117Z,28.70
2018-07-28T08:23:58.038Z,29.60
2018-07-28T08:27:01.165Z,29.70
2018-07-28T08:30:05.267Z,30.70
2018-07-28T08:33:08.362Z,30.80
2018-07-28T08:36:11.428Z,30.90
2018-07-28T08:39:15.366Z,31.10
2018-07-28T08:42:18.441Z,31.50
2018-07-28T08:45:21.516Z,31.30
2018-07-28T08:48:24.569Z,32.80
2018-07-28T08:57:34.045Z,32.60
2018-07-28T09:00:37.153Z,32.90
2018-07-28T09:03:40.229Z,33.00
2018-07-28T09:06:43.268Z,31.70
2018-07-28T09:09:46.329Z,32.70
2018-07-28T09:12:49.388Z,32.00
2018-07-28T09:15:52.450Z,31.40
2018-07-28T09:18:55.524Z,31.20
2018-07-28T09:21:58.593Z,31.20
2018-07-28T09:25:01.648Z,31.40
2018-07-28T09:28:04.718Z,32.10
2018-07-28T09:31:07.817Z,31.70
2018-07-28T09:34:10.962Z,30.60
2018-07-28T09:37:14.127Z,29.60
2018-07-28T09:40:17.266Z,30.80
2018-07-28T09:43:20.474Z,29.50
2018-07-28T09:46:23.684Z,30.90
2018-07-28T09:49:26.853Z,32.00
2018-07-28T09:52:30.014Z,31.80
2018-07-28T09:55:33.211Z,32.20
2018-07-28T09:58:36.377Z,33.10
2018-07-28T10:01:39.567Z,32.50
2018-07-28T10:04:42.777Z,32.20
2018-07-28T10:07:45.982Z,33.40
2018-07-28T10:13:52.151Z,33.40
2018-07-28T10:19:58.287Z,33.90
2018-07-28T10:23:01.559Z,31.40
2018-07-28T10:26:04.674Z,30.90
2018-07-28T10:29:07.870Z,29.50
2018-07-28T10:32:10.998Z,31.00
2018-07-28T10:35:14.273Z,32.20
2018-07-28T10:38:17.557Z,32.00
2018-07-28T10:41:20.757Z,31.20
2018-07-28T10:44:23.965Z,30.60
2018-07-28T10:47:27.150Z,30.10
2018-07-28T10:50:30.473Z,30.20
2018-07-28T10:53:33.702Z,31.40
2018-07-28T10:56:36.890Z,31.50
2018-07-28T10:59:40.150Z,31.70
2018-07-28T11:05:46.578Z,33.60
2018-07-28T11:08:49.742Z,34.20
2018-07-28T11:14:56.636Z,37.10
2018-07-28T11:17:59.826Z,39.20
2018-07-28T11:21:03.030Z,41.80
2018-07-28T11:27:09.416Z,40.30
2018-07-28T11:33:27.053Z,43.70
2018-07-28T11:37:37.965Z,44.40
2018-07-28T11:40:52.822Z,42.90
2018-07-28T11:47:04.673Z,44.00
2018-07-28T11:50:07.908Z,43.90
2018-07-28T11:53:11.106Z,44.80
2018-07-28T11:56:14.414Z,45.70
2018-07-28T12:02:20.617Z,46.80
2018-07-28T12:05:23.908Z,47.70
2018-07-28T12:08:27.098Z,48.90
2018-07-28T12:11:30.318Z,49.70
2018-07-28T12:14:33.695Z,51.00
2018-07-28T12:20:40.050Z,51.80
2018-07-28T12:23:43.314Z,51.10
2018-07-28T12:26:46.548Z,50.90
2018-07-28T12:29:49.802Z,50.90
2018-07-28T12:32:53.032Z,50.80
2018-07-28T12:35:56.198Z,50.00
2018-07-28T12:38:59.390Z,50.60
2018-07-28T12:42:02.578Z,50.90
2018-07-28T12:45:05.961Z,50.70
2018-07-28T12:48:09.173Z,50.40
2018-07-28T12:51:12.378Z,49.90
2018-07-28T12:54:15.583Z,48.90
2018-07-28T12:57:18.762Z,48.20
2018-07-28T13:00:21.942Z,47.40
2018-07-28T13:03:25.137Z,47.70
2018-07-28T13:06:28.289Z,48.00
2018-07-28T13:12:35.308Z,48.80
2018-07-28T13:15:39.229Z,48.00
2018-07-28T13:18:43.613Z,48.70
2018-07-28T13:21:47.253Z,48.30
2018-07-28T13:24:51.075Z,48.80
2018-07-28T13:27:54.880Z,48.70
2018-07-28T13:30:58.162Z,47.80
2018-07-28T13:34:01.303Z,47.70
2018-07-28T13:37:04.610Z,47.10
2018-07-28T13:40:07.823Z,46.20
2018-07-28T13:46:14.123Z,47.50
2018-07-28T13:49:17.394Z,47.70
2018-07-28T13:52:20.606Z,47.80
2018-07-28T13:58:37.190Z,46.70
2018-07-28T14:01:40.394Z,46.70
2018-07-28T14:04:43.625Z,47.00
2018-07-28T14:07:46.882Z,46.70
2018-07-28T14:10:50.093Z,47.10
2018-07-28T14:13:53.329Z,47.30
2018-07-28T14:16:56.544Z,46.90
2018-07-28T14:19:59.810Z,46.90
2018-07-28T14:23:02.977Z,47.30
2018-07-28T14:26:06.158Z,47.10
2018-07-28T14:29:09.333Z,46.50
2018-07-28T14:32:12.530Z,46.40
2018-07-28T14:35:15.678Z,46.30
2018-07-28T14:38:18.953Z,46.70
2018-07-28T14:41:22.242Z,45.80
2018-07-28T14:44:25.438Z,45.40
2018-07-28T14:47:28.579Z,45.40
2018-07-28T14:50:31.722Z,44.10
2018-07-28T14:56:37.938Z,40.10
2018-07-28T14:59:41.122Z,40.30
2018-07-28T15:02:44.338Z,40.90
2018-07-28T15:05:47.539Z,40.30
2018-07-28T15:08:50.858Z,39.70
2018-07-28T15:11:54.185Z,40.00
2018-07-28T15:14:57.777Z,39.30
2018-07-28T15:21:04.171Z,39.40
2018-07-28T15:24:07.505Z,39.80
2018-07-28T15:27:10.719Z,40.50
2018-07-28T15:30:18.480Z,40.30
2018-07-28T15:33:22.175Z,40.50
2018-07-28T15:42:32.835Z,41.90
2018-07-28T15:45:36.734Z,42.30
2018-07-28T15:48:40.408Z,42.60
2018-07-28T15:51:44.535Z,43.20
2018-07-28T15:54:48.348Z,43.70
2018-07-28T15:57:51.588Z,44.00
2018-07-28T16:00:54.754Z,44.20
2018-07-28T16:03:57.987Z,44.50
2018-07-28T16:07:01.276Z,45.10
2018-07-28T16:10:04.730Z,45.50
2018-07-28T16:13:08.001Z,45.80
2018-07-28T16:19:14.326Z,45.60
2018-07-28T16:22:17.546Z,45.80
2018-07-28T16:25:20.775Z,46.20
2018-07-28T16:31:27.199Z,45.80
2018-07-28T16:34:31.329Z,45.60
2018-07-28T16:37:34.534Z,46.20
2018-07-28T16:40:37.758Z,46.50
2018-07-28T16:43:41.906Z,46.80
2018-07-28T16:46:45.101Z,46.60
2018-07-28T16:49:48.272Z,48.10
2018-07-28T16:52:51.477Z,49.30
2018-07-28T16:55:54.676Z,50.10
2018-07-28T16:58:57.990Z,50.70
2018-07-28T17:02:01.221Z,51.40
2018-07-28T17:05:04.621Z,51.70
2018-07-28T17:08:07.771Z,52.20
2018-07-28T17:11:10.954Z,52.40
2018-07-28T17:14:14.117Z,52.50
2018-07-28T17:17:17.314Z,52.90
2018-07-28T17:20:20.523Z,53.40
2018-07-28T17:26:26.737Z,53.40
2018-07-28T17:29:29.986Z,53.60
2018-07-28T17:32:33.182Z,54.10
2018-07-28T17:38:39.367Z,54.70
2018-07-28T17:41:42.589Z,54.80
2018-07-28T17:44:45.950Z,55.00
2018-07-28T17:47:49.128Z,55.00
2018-07-28T17:50:52.804Z,55.30
2018-07-28T17:53:56.050Z,55.80
2018-07-28T17:56:59.202Z,56.20
2018-07-28T18:00:02.467Z,56.50
2018-07-28T18:03:24.138Z,56.50
2018-07-28T18:06:27.336Z,57.00
2018-07-28T18:09:30.619Z,57.20
2018-07-28T18:12:33.742Z,57.40
2018-07-28T18:15:37.017Z,57.80
2018-07-28T18:18:40.305Z,58.20
2018-07-28T18:21:43.723Z,58.50
2018-07-28T18:24:47.005Z,58.20
2018-07-28T18:27:50.285Z,58.10
2018-07-28T18:30:53.838Z,57.80
2018-07-28T18:33:56.824Z,59.30
2018-07-28T18:37:00.015Z,58.70
2018-07-28T18:40:03.190Z,58.90
2018-07-28T18:43:06.392Z,59.50
2018-07-28T18:46:09.584Z,60.10
2018-07-28T18:49:12.910Z,59.80
2018-07-28T18:55:19.203Z,60.00
2018-07-28T18:58:22.362Z,55.20
2018-07-28T19:01:25.546Z,57.60
2018-07-28T19:04:28.718Z,59.40
2018-07-28T19:07:32.854Z,60.70
2018-07-28T19:10:36.031Z,64.70
2018-07-28T19:13:44.842Z,65.70
2018-07-28T19:16:48.026Z,66.50
2018-07-28T19:19:51.286Z,69.80
2018-07-28T19:29:11.459Z,71.10
2018-07-28T19:32:14.608Z,71.30
2018-07-28T19:35:17.781Z,71.20
2018-07-28T19:38:20.964Z,71.40
2018-07-28T19:41:24.138Z,71.60
2018-07-28T19:44:27.488Z,73.00
2018-07-28T19:47:30.561Z,74.50
2018-07-28T19:50:33.887Z,79.90
2018-07-28T19:53:37.173Z,82.40
2018-07-28T19:56:40.400Z,86.80
2018-07-28T19:59:43.714Z,88.80
2018-07-28T20:02:46.938Z,90.50
2018-07-28T20:05:50.167Z,91.50
2018-07-28T20:08:53.602Z,92.20
2018-07-28T20:11:56.830Z,93.10
2018-07-28T20:15:00.114Z,94.00
2018-07-28T20:18:03.441Z,93.90
2018-07-28T20:21:06.670Z,94.50
2018-07-28T20:24:09.907Z,94.10
2018-07-28T20:27:13.206Z,94.40
2018-07-28T20:30:16.549Z,94.80
2018-07-28T20:33:19.938Z,94.80
2018-07-28T20:36:23.094Z,94.80
2018-07-28T20:39:26.341Z,95.60
2018-07-28T20:45:32.559Z,95.80
2018-07-28T20:48:35.800Z,96.10
2018-07-28T20:54:42.069Z,96.30
2018-07-28T20:57:45.371Z,96.50
2018-07-28T21:00:48.634Z,96.60
2018-07-28T21:03:51.907Z,96.40
2018-07-28T21:06:55.110Z,96.90
2018-07-28T21:09:58.387Z,97.20
2018-07-28T21:13:01.640Z,97.50
2018-07-28T21:16:04.930Z,97.60
2018-07-28T21:19:08.123Z,97.90
2018-07-28T21:22:11.333Z,98.00
2018-07-28T21:28:17.937Z,97.90
2018-07-28T21:31:21.218Z,97.60
2018-07-28T21:34:24.514Z,98.10
2018-07-28T21:37:27.773Z,98.20
2018-07-28T21:40:31.012Z,98.70
2018-07-28T21:46:37.381Z,99.00
2018-07-28T21:49:40.651Z,99.20
2018-07-28T21:52:44.016Z,99.10
2018-07-28T21:55:47.265Z,99.30
2018-07-28T21:58:50.461Z,99.00
2018-07-28T22:01:53.645Z,98.90
2018-07-28T22:04:56.922Z,98.90
2018-07-28T22:08:00.229Z,99.10
2018-07-28T22:11:03.491Z,98.90
2018-07-28T22:14:06.811Z,98.50
2018-07-28T22:17:10.055Z,98.20
2018-07-28T22:23:16.385Z,97.60
2018-07-28T22:26:19.574Z,97.80
2018-07-28T22:29:22.772Z,97.90
2018-07-28T22:32:26.079Z,97.60
2018-07-28T22:35:29.375Z,97.50
2018-07-28T22:38:32.711Z,97.90
2018-07-28T22:41:35.995Z,98.50
2018-07-28T22:44:39.295Z,98.50
2018-07-28T22:47:42.455Z,98.80
2018-07-28T22:50:45.721Z,98.40
2018-07-28T22:53:48.984Z,98.10
2018-07-28T22:56:52.241Z,98.10
2018-07-28T22:59:55.406Z,98.20
2018-07-28T23:02:58.715Z,98.70
2018-07-28T23:06:01.946Z,99.00
2018-07-28T23:09:07.898Z,99.00
2018-07-28T23:12:11.179Z,99.20
2018-07-28T23:15:14.362Z,99.30
2018-07-28T23:18:17.600Z,99.30
2018-07-28T23:21:20.897Z,99.30
2018-07-28T23:24:24.082Z,99.40
2018-07-28T23:27:27.289Z,99.60
2018-07-28T23:30:30.625Z,99.40
2018-07-28T23:33:33.876Z,99.60
2018-07-28T23:36:37.079Z,99.60
2018-07-28T23:42:43.254Z,99.60
2018-07-28T23:45:46.450Z,99.40
2018-07-28T23:48:49.689Z,99.40
2018-07-28T23:51:52.867Z,99.50
2018-07-28T23:57:59.098Z,99.50
